Terminal Aerodrome Forecast
Issued by NWS Lake Charles, LA

Current Version | Previous Version | Text Only | Print | Product List | Glossary On
Versions: 1 2 3 4 5 6 7 8 9 10 11 12 13 14 15 16 17 18 19
084
FTUS44 KLCH 192129 AAB
TAFAEX
TAF AMD
KAEX 192129Z 1921/2018 VRB05KT P6SM SCT015 BKN100
     FM200100 23005KT 4SM BR OVC007
     FM200500 23005KT 1SM BR OVC004
     FM201500 19008KT 4SM BR OVC007=

USA.gov is the U.S. government's official web portal to all federal, state and local government web resources and services.